createdAt,value
2019-04-16T00:02:10.392Z,10.40
2019-04-16T00:05:05.020Z,10.50
2019-04-16T00:07:53.608Z,10.50
2019-04-16T00:10:29.665Z,10.60
2019-04-16T00:13:13.235Z,10.60
2019-04-16T00:15:42.835Z,10.60
2019-04-16T00:18:12.664Z,10.40
2019-04-16T00:21:01.481Z,10.30
2019-04-16T00:23:46.943Z,10.30
2019-04-16T00:26:16.528Z,10.20
2019-04-16T00:28:46.185Z,10.30
2019-04-16T00:31:15.818Z,10.30
2019-04-16T00:33:45.430Z,10.20
2019-04-16T00:36:15.312Z,10.20
2019-04-16T00:38:46.534Z,10.20
2019-04-16T00:41:16.162Z,10.20
2019-04-16T00:43:46.018Z,10.20
2019-04-16T00:46:16.135Z,10.20
2019-04-16T00:48:45.837Z,10.30
2019-04-16T00:51:15.783Z,10.30
2019-04-16T00:53:45.479Z,10.20
2019-04-16T00:56:16.190Z,10.30
2019-04-16T00:58:46.440Z,10.40
2019-04-16T01:01:16.438Z,10.30
2019-04-16T01:03:46.028Z,10.60
2019-04-16T01:06:15.763Z,10.30
2019-04-16T01:08:54.502Z,10.30
2019-04-16T01:11:16.582Z,10.30
2019-04-16T01:13:46.198Z,10.20
2019-04-16T01:16:16.099Z,10.20
2019-04-16T01:18:45.649Z,10.30
2019-04-16T01:21:15.266Z,10.20
2019-04-16T01:23:48.391Z,10.30
2019-04-16T01:26:16.332Z,10.10
2019-04-16T01:29:05.070Z,10.30
2019-04-16T01:31:53.625Z,9.80
2019-04-16T01:34:47.073Z,10.30
2019-04-16T01:37:36.962Z,10.10
2019-04-16T01:40:07.427Z,9.70
2019-04-16T01:42:37.284Z,10.00
2019-04-16T01:45:07.254Z,10.20
2019-04-16T01:47:37.351Z,10.20
2019-04-16T01:50:12.652Z,9.90
2019-04-16T01:52:39.200Z,10.00
2019-04-16T01:55:08.938Z,9.90
2019-04-16T01:57:38.544Z,9.80
2019-04-16T02:00:08.847Z,9.80
2019-04-16T02:02:38.487Z,9.80
2019-04-16T02:05:08.294Z,9.80
2019-04-16T02:07:37.856Z,9.90
2019-04-16T02:10:08.121Z,9.70
2019-04-16T02:12:37.774Z,9.80
2019-04-16T02:15:09.337Z,9.80
2019-04-16T02:17:38.909Z,9.50
2019-04-16T02:20:08.834Z,9.60
2019-04-16T02:22:38.406Z,9.50
2019-04-16T02:25:08.511Z,9.40
2019-04-16T02:27:38.088Z,9.50
2019-04-16T02:30:07.862Z,9.50
2019-04-16T02:32:37.413Z,9.80
2019-04-16T02:35:07.366Z,9.50
2019-04-16T02:37:37.621Z,9.50
2019-04-16T02:40:07.792Z,9.60
2019-04-16T02:42:37.611Z,9.50
2019-04-16T02:45:08.147Z,9.40
2019-04-16T02:47:41.838Z,9.40
2019-04-16T02:50:12.728Z,9.40
2019-04-16T02:52:53.511Z,9.50
2019-04-16T02:55:43.928Z,9.40
2019-04-16T02:58:15.116Z,9.50
2019-04-16T03:01:12.837Z,9.40
2019-04-16T03:03:49.709Z,9.40
2019-04-16T03:06:19.311Z,9.60
2019-04-16T03:08:49.128Z,9.60
2019-04-16T03:11:18.703Z,9.50
2019-04-16T03:13:48.278Z,9.50
2019-04-16T03:16:40.170Z,9.50
2019-04-16T03:19:18.855Z,9.30
2019-04-16T03:21:47.345Z,9.40
2019-04-16T03:24:16.916Z,9.40
2019-04-16T03:26:47.658Z,9.80
2019-04-16T03:29:17.693Z,9.40
2019-04-16T03:31:47.275Z,9.50
2019-04-16T03:34:19.105Z,9.50
2019-04-16T03:36:48.296Z,9.50
2019-04-16T03:39:17.910Z,9.00
2019-04-16T03:41:48.880Z,9.10
2019-04-16T03:44:18.447Z,9.00
2019-04-16T03:46:48.340Z,8.80
2019-04-16T03:49:17.905Z,8.80
2019-04-16T03:51:47.796Z,9.20
2019-04-16T03:54:18.813Z,9.00
2019-04-16T03:56:48.664Z,8.90
2019-04-16T03:59:18.298Z,8.90
2019-04-16T04:01:47.865Z,8.80
2019-04-16T04:04:17.676Z,8.90
2019-04-16T04:06:47.245Z,9.50
2019-04-16T04:09:18.956Z,9.20
2019-04-16T04:11:48.059Z,9.00
2019-04-16T04:14:22.367Z,8.90
2019-04-16T04:16:48.833Z,8.90
2019-04-16T04:19:18.430Z,8.80
2019-04-16T04:21:50.602Z,8.90
2019-04-16T04:24:19.215Z,8.80
2019-04-16T04:26:48.839Z,9.10
2019-04-16T04:29:20.701Z,9.10
2019-04-16T04:31:49.947Z,8.50
2019-04-16T04:34:19.554Z,8.60
2019-04-16T04:36:49.161Z,9.10
2019-04-16T04:39:18.782Z,8.50
2019-04-16T04:41:48.613Z,8.50
2019-04-16T04:44:18.499Z,8.80
2019-04-16T04:46:48.051Z,8.50
2019-04-16T04:49:17.709Z,8.50
2019-04-16T04:51:47.296Z,8.60
2019-04-16T04:54:21.644Z,8.80
2019-04-16T04:56:48.151Z,8.80
2019-04-16T04:59:17.757Z,8.90
2019-04-16T05:01:47.590Z,8.90
2019-04-16T05:04:34.784Z,8.80
2019-04-16T05:07:06.409Z,9.00
2019-04-16T05:09:36.860Z,8.80
2019-04-16T05:12:08.303Z,9.00
2019-04-16T05:14:40.970Z,9.10
2019-04-16T05:17:10.511Z,8.80
2019-04-16T05:19:40.147Z,9.10
2019-04-16T05:22:09.889Z,9.00
2019-04-16T05:24:39.462Z,9.40
2019-04-16T05:27:09.464Z,9.00
2019-04-16T05:29:39.392Z,9.10
2019-04-16T05:32:09.268Z,9.40
2019-04-16T05:34:38.844Z,9.40
2019-04-16T05:37:08.551Z,9.50
2019-04-16T05:39:38.146Z,9.20
2019-04-16T05:42:07.792Z,9.50
2019-04-16T05:44:37.322Z,9.80
2019-04-16T05:47:07.263Z,9.90
2019-04-16T05:49:37.105Z,9.90
2019-04-16T05:52:06.717Z,9.80
2019-04-16T05:54:53.543Z,10.00
2019-04-16T05:57:27.474Z,10.20
2019-04-16T05:59:57.240Z,10.20
2019-04-16T06:02:36.108Z,10.30
2019-04-16T06:05:06.365Z,10.50
2019-04-16T06:07:38.099Z,10.60
2019-04-16T06:10:07.778Z,10.40
2019-04-16T06:12:50.044Z,10.80
2019-04-16T06:15:38.540Z,11.00
2019-04-16T06:18:19.901Z,10.90
2019-04-16T06:20:59.814Z,10.90
2019-04-16T06:24:03.075Z,10.80
2019-04-16T06:26:49.042Z,11.00
2019-04-16T06:29:34.609Z,11.10
2019-04-16T06:32:16.756Z,11.20
2019-04-16T06:35:09.858Z,11.30
2019-04-16T06:37:51.991Z,11.50
2019-04-16T06:40:47.634Z,11.30
2019-04-16T06:43:26.280Z,11.60
2019-04-16T06:46:16.527Z,11.70
2019-04-16T06:49:03.674Z,11.70
2019-04-16T06:51:59.757Z,11.60
2019-04-16T06:54:41.260Z,12.00
2019-04-16T06:57:27.400Z,11.90
2019-04-16T07:00:14.641Z,11.80
2019-04-16T07:03:02.550Z,11.90
2019-04-16T07:05:47.403Z,11.80
2019-04-16T07:08:36.913Z,12.00
2019-04-16T07:10:59.190Z,12.10
2019-04-16T07:13:28.828Z,12.20
2019-04-16T07:15:58.916Z,12.10
2019-04-16T07:18:28.878Z,12.20
2019-04-16T07:20:58.760Z,12.20
2019-04-16T07:23:28.423Z,12.20
2019-04-16T07:25:58.060Z,12.30
2019-04-16T07:28:33.098Z,12.60
2019-04-16T07:31:36.729Z,12.60
2019-04-16T07:34:25.507Z,12.70
2019-04-16T07:37:07.980Z,12.80
2019-04-16T07:40:09.008Z,13.00
2019-04-16T07:42:52.425Z,13.20
2019-04-16T07:45:43.435Z,13.20
2019-04-16T07:48:32.876Z,13.30
2019-04-16T07:51:26.364Z,13.50
2019-04-16T07:54:13.429Z,13.60
2019-04-16T07:56:45.673Z,13.70
2019-04-16T07:59:15.317Z,13.60
2019-04-16T08:01:47.820Z,13.60
2019-04-16T08:04:25.506Z,13.50
2019-04-16T08:06:47.662Z,13.50
2019-04-16T08:09:17.527Z,13.60
2019-04-16T08:11:47.362Z,13.70
2019-04-16T08:14:17.240Z,13.80
2019-04-16T08:16:48.039Z,13.90
2019-04-16T08:19:17.848Z,14.00
2019-04-16T08:21:47.412Z,14.10
2019-04-16T08:24:25.537Z,14.20
2019-04-16T08:26:55.067Z,14.30
2019-04-16T08:29:26.461Z,14.20
2019-04-16T08:31:56.163Z,14.30
2019-04-16T08:34:25.835Z,14.30
2019-04-16T08:36:55.655Z,14.40
2019-04-16T08:39:25.578Z,14.50
2019-04-16T08:41:55.115Z,14.60
2019-04-16T08:44:24.790Z,14.70
2019-04-16T08:46:54.373Z,14.80
2019-04-16T08:49:23.968Z,14.90
2019-04-16T08:51:53.488Z,15.10
2019-04-16T08:54:23.101Z,15.20
2019-04-16T08:56:52.970Z,15.30
2019-04-16T08:59:22.570Z,15.50
2019-04-16T09:01:54.380Z,15.60
2019-04-16T09:04:23.689Z,15.80
2019-04-16T09:06:53.265Z,15.90
2019-04-16T09:09:33.055Z,15.90
2019-04-16T09:12:08.936Z,16.10
2019-04-16T09:14:40.766Z,16.00
2019-04-16T09:17:13.043Z,16.00
2019-04-16T09:19:45.912Z,15.90
2019-04-16T09:22:16.941Z,16.00
2019-04-16T09:24:54.538Z,16.10
2019-04-16T09:27:34.150Z,16.10
2019-04-16T09:30:18.584Z,16.00
2019-04-16T09:33:00.399Z,16.00
2019-04-16T09:35:34.696Z,16.20
2019-04-16T09:38:23.329Z,16.20
2019-04-16T09:41:20.976Z,16.20
2019-04-16T09:43:57.035Z,16.20
2019-04-16T09:46:48.863Z,16.20
2019-04-16T09:48:56.567Z,16.20
2019-04-16T09:51:26.473Z,16.40
2019-04-16T09:53:59.167Z,16.60
2019-04-16T09:56:30.228Z,16.80
2019-04-16T09:59:26.500Z,16.80
2019-04-16T10:02:20.791Z,16.70
2019-04-16T10:04:50.384Z,16.70
2019-04-16T10:07:20.277Z,16.70
2019-04-16T10:09:51.443Z,16.80
2019-04-16T10:12:21.187Z,16.80
2019-04-16T10:14:51.028Z,17.00
2019-04-16T10:17:20.824Z,17.20
2019-04-16T10:19:50.504Z,17.40
2019-04-16T10:22:20.461Z,17.40
2019-04-16T10:25:07.333Z,17.50
2019-04-16T10:27:39.019Z,17.50
2019-04-16T10:30:19.522Z,17.70
2019-04-16T10:32:49.462Z,17.80
2019-04-16T10:35:19.059Z,17.90
2019-04-16T10:37:48.683Z,17.90
2019-04-16T10:40:43.589Z,18.10
2019-04-16T10:43:43.626Z,18.10
2019-04-16T10:46:14.213Z,18.20
2019-04-16T10:48:59.401Z,18.10
2019-04-16T10:51:46.594Z,18.10
2019-04-16T10:54:24.598Z,18.00
2019-04-16T10:57:11.801Z,18.10
2019-04-16T10:59:50.633Z,18.10
2019-04-16T11:02:33.419Z,18.10
2019-04-16T11:05:11.372Z,18.10
2019-04-16T11:07:41.206Z,18.20
2019-04-16T11:10:11.906Z,18.40
2019-04-16T11:12:41.865Z,18.50
2019-04-16T11:15:13.375Z,18.60
2019-04-16T11:17:42.972Z,18.60
2019-04-16T11:20:12.851Z,18.60
2019-04-16T11:22:42.592Z,18.80
2019-04-16T11:25:12.608Z,18.90
2019-04-16T11:27:42.137Z,19.00
2019-04-16T11:30:24.142Z,19.10
2019-04-16T11:32:53.749Z,19.20
2019-04-16T11:35:23.409Z,19.20
2019-04-16T11:37:53.040Z,19.30
2019-04-16T11:40:22.606Z,19.40
2019-04-16T11:42:52.161Z,19.50
2019-04-16T11:45:21.744Z,19.60
2019-04-16T11:47:51.348Z,19.70
2019-04-16T11:50:21.165Z,19.50
2019-04-16T11:52:50.730Z,19.50
2019-04-16T11:55:20.301Z,19.60
2019-04-16T11:57:50.441Z,19.60
2019-04-16T12:00:41.857Z,19.70
2019-04-16T12:03:25.537Z,19.70
2019-04-16T12:06:27.077Z,19.70
2019-04-16T12:08:53.887Z,19.70
2019-04-16T12:11:28.489Z,19.80
2019-04-16T12:14:10.008Z,19.70
2019-04-16T12:16:58.788Z,19.60
2019-04-16T12:19:45.667Z,19.70
2019-04-16T12:22:24.968Z,19.80
2019-04-16T12:25:16.204Z,19.90
2019-04-16T12:28:08.287Z,20.00
2019-04-16T12:30:58.882Z,20.10
2019-04-16T12:33:34.871Z,20.10
2019-04-16T12:36:14.544Z,20.20
2019-04-16T12:38:51.265Z,20.20
2019-04-16T12:41:33.212Z,20.30
2019-04-16T12:44:24.164Z,20.40
2019-04-16T12:47:09.191Z,20.50
2019-04-16T12:50:01.490Z,20.60
2019-04-16T12:52:37.416Z,20.60
2019-04-16T12:55:25.219Z,20.70
2019-04-16T12:58:04.578Z,20.80
2019-04-16T13:00:44.039Z,20.80
2019-04-16T13:03:38.282Z,20.90
2019-04-16T13:06:27.112Z,21.20
2019-04-16T13:09:14.273Z,21.20
2019-04-16T13:12:09.493Z,21.30
2019-04-16T13:15:02.220Z,21.40
2019-04-16T13:17:50.972Z,21.50
2019-04-16T13:20:44.047Z,21.60
2019-04-16T13:23:21.233Z,21.60
2019-04-16T13:26:00.022Z,21.60
2019-04-16T13:28:30.877Z,21.60
2019-04-16T13:31:00.511Z,21.60
2019-04-16T13:33:30.059Z,21.70
2019-04-16T13:35:59.869Z,21.60
2019-04-16T13:38:30.568Z,21.60
2019-04-16T13:41:02.207Z,21.60
2019-04-16T13:43:37.587Z,21.50
2019-04-16T13:46:07.280Z,21.50
2019-04-16T13:49:14.088Z,21.60
2019-04-16T13:51:45.099Z,21.70
2019-04-16T13:54:27.603Z,21.80
2019-04-16T13:56:58.291Z,22.00
2019-04-16T13:59:49.832Z,22.10
2019-04-16T14:02:33.705Z,22.30
2019-04-16T14:05:05.135Z,22.40
2019-04-16T14:07:34.770Z,22.60
2019-04-16T14:10:04.698Z,22.90
2019-04-16T14:12:42.250Z,23.10
2019-04-16T14:15:06.992Z,23.40
2019-04-16T14:17:51.725Z,23.60
2019-04-16T14:20:12.117Z,24.00
2019-04-16T14:22:39.976Z,24.50
2019-04-16T14:25:10.139Z,25.10
2019-04-16T14:27:39.704Z,25.70
2019-04-16T14:30:14.935Z,26.10
2019-04-16T14:32:44.875Z,26.50
2019-04-16T14:35:32.040Z,27.00
2019-04-16T14:37:48.260Z,27.60
2019-04-16T14:40:22.690Z,28.20
2019-04-16T14:42:57.330Z,28.60
2019-04-16T14:45:57.542Z,28.90
2019-04-16T14:48:16.953Z,29.20
2019-04-16T14:50:46.803Z,29.90
2019-04-16T14:53:34.003Z,30.60
2019-04-16T14:56:09.506Z,31.00
2019-04-16T14:58:55.541Z,31.60
2019-04-16T15:01:53.151Z,32.20
2019-04-16T15:04:40.082Z,32.70
2019-04-16T15:07:31.541Z,33.10
2019-04-16T15:10:20.310Z,33.40
2019-04-16T15:13:07.416Z,33.20
2019-04-16T15:15:47.274Z,32.80
2019-04-16T15:18:34.443Z,32.30
2019-04-16T15:21:12.538Z,32.20
2019-04-16T15:24:07.004Z,31.90
2019-04-16T15:26:53.360Z,31.60
2019-04-16T15:29:30.322Z,31.30
2019-04-16T15:32:16.180Z,30.90
2019-04-16T15:34:47.365Z,30.40
2019-04-16T15:37:50.747Z,30.00
2019-04-16T15:40:40.295Z,29.70
2019-04-16T15:43:27.386Z,29.70
2019-04-16T15:46:26.083Z,29.80
2019-04-16T15:48:56.046Z,29.60
2019-04-16T15:51:56.468Z,29.50
2019-04-16T15:54:33.480Z,29.30
2019-04-16T15:57:20.270Z,29.00
2019-04-16T16:00:12.196Z,28.90
2019-04-16T16:03:10.211Z,28.90
2019-04-16T16:05:47.356Z,28.40
2019-04-16T16:08:26.941Z,28.30
2019-04-16T16:11:00.515Z,28.30
2019-04-16T16:13:30.074Z,28.40
2019-04-16T16:15:59.799Z,28.20
2019-04-16T16:18:29.341Z,28.00
2019-04-16T16:20:59.172Z,27.60
2019-04-16T16:23:33.036Z,26.90
2019-04-16T16:26:00.419Z,26.50
2019-04-16T16:28:29.973Z,26.10
2019-04-16T16:30:59.804Z,25.80
2019-04-16T16:33:29.369Z,25.60
2019-04-16T16:36:00.212Z,25.30
2019-04-16T16:38:30.277Z,25.00
2019-04-16T16:40:59.897Z,24.60
2019-04-16T16:43:29.872Z,24.30
2019-04-16T16:46:21.279Z,24.30
2019-04-16T16:48:51.843Z,24.50
2019-04-16T16:51:23.205Z,24.50
2019-04-16T16:54:04.848Z,24.70
2019-04-16T16:57:07.539Z,24.60
2019-04-16T16:59:56.207Z,24.50
2019-04-16T17:02:36.689Z,24.50
2019-04-16T17:05:08.623Z,24.80
2019-04-16T17:07:38.522Z,25.00
2019-04-16T17:10:08.848Z,25.20
2019-04-16T17:12:39.010Z,25.40
2019-04-16T17:15:09.618Z,25.60
2019-04-16T17:17:39.590Z,25.70
2019-04-16T17:20:09.255Z,25.80
2019-04-16T17:22:40.700Z,25.80
2019-04-16T17:25:11.703Z,25.60
2019-04-16T17:27:51.269Z,25.40
2019-04-16T17:30:13.599Z,25.10
2019-04-16T17:32:43.186Z,24.90
2019-04-16T17:35:15.458Z,24.60
2019-04-16T17:37:43.935Z,24.10
2019-04-16T17:40:26.821Z,23.60
2019-04-16T17:43:00.117Z,23.10
2019-04-16T17:45:57.432Z,22.40
2019-04-16T17:49:01.151Z,21.90
2019-04-16T17:51:53.459Z,21.40
2019-04-16T17:54:45.267Z,20.80
2019-04-16T17:57:32.121Z,20.50
2019-04-16T18:00:17.761Z,20.20
2019-04-16T18:03:21.698Z,20.00
2019-04-16T18:06:08.667Z,19.70
2019-04-16T18:08:59.907Z,19.40
2019-04-16T18:11:51.164Z,19.20
2019-04-16T18:14:48.501Z,18.90
2019-04-16T18:17:46.839Z,18.70
2019-04-16T18:20:28.553Z,18.50
2019-04-16T18:23:06.979Z,18.30
2019-04-16T18:25:58.515Z,18.00
2019-04-16T18:28:31.883Z,17.90
2019-04-16T18:31:06.836Z,17.70
2019-04-16T18:33:41.011Z,17.60
2019-04-16T18:36:32.315Z,17.40
2019-04-16T18:39:19.512Z,17.30
2019-04-16T18:41:59.619Z,17.10
2019-04-16T18:44:56.163Z,16.90
2019-04-16T18:48:03.035Z,16.80
2019-04-16T18:50:28.289Z,16.60
2019-04-16T18:52:58.122Z,16.50
2019-04-16T18:55:28.023Z,16.40
2019-04-16T18:57:57.997Z,16.40
2019-04-16T19:00:33.564Z,16.40
2019-04-16T19:03:03.477Z,16.30
2019-04-16T19:05:33.286Z,16.20
2019-04-16T19:08:03.236Z,16.20
2019-04-16T19:10:32.847Z,16.20
2019-04-16T19:13:05.479Z,16.20
2019-04-16T19:15:33.706Z,16.10
2019-04-16T19:18:18.470Z,16.00
2019-04-16T19:20:34.754Z,16.00
2019-04-16T19:23:04.431Z,15.90
2019-04-16T19:25:33.996Z,15.90
2019-04-16T19:28:06.005Z,15.80
2019-04-16T19:30:34.878Z,15.70
2019-04-16T19:33:04.784Z,15.70
2019-04-16T19:35:34.330Z,15.70
2019-04-16T19:38:06.217Z,15.60
2019-04-16T19:40:35.376Z,15.60
2019-04-16T19:43:04.972Z,15.60
2019-04-16T19:45:34.567Z,15.50
2019-04-16T19:48:04.137Z,15.40
2019-04-16T19:50:36.513Z,15.40
2019-04-16T19:53:05.013Z,15.40
2019-04-16T19:55:34.882Z,15.30
2019-04-16T19:58:04.948Z,15.30
2019-04-16T20:00:34.560Z,15.30
2019-04-16T20:03:04.503Z,15.30
2019-04-16T20:05:34.341Z,15.20
2019-04-16T20:08:03.921Z,15.20
2019-04-16T20:10:33.488Z,15.20
2019-04-16T20:13:03.135Z,15.20
2019-04-16T20:15:32.988Z,15.20
2019-04-16T20:18:06.014Z,15.10
2019-04-16T20:20:33.847Z,15.10
2019-04-16T20:23:03.707Z,15.10
2019-04-16T20:25:33.566Z,15.10
2019-04-16T20:28:03.144Z,15.00
2019-04-16T20:30:32.805Z,14.90
2019-04-16T20:33:02.646Z,14.90
2019-04-16T20:35:32.494Z,14.90
2019-04-16T20:38:02.483Z,14.90
2019-04-16T20:40:32.324Z,14.80
2019-04-16T20:43:02.160Z,14.80
2019-04-16T20:45:31.708Z,14.70
2019-04-16T20:48:01.333Z,14.70
2019-04-16T20:50:30.923Z,14.70
2019-04-16T20:53:06.163Z,14.80
2019-04-16T20:55:32.273Z,14.80
2019-04-16T20:58:01.929Z,14.70
2019-04-16T21:00:33.129Z,14.70
2019-04-16T21:03:03.718Z,14.70
2019-04-16T21:05:35.810Z,14.60
2019-04-16T21:08:04.882Z,14.60
2019-04-16T21:10:35.696Z,14.60
2019-04-16T21:13:06.029Z,14.50
2019-04-16T21:15:47.040Z,14.50
2019-04-16T21:18:16.656Z,14.50
2019-04-16T21:20:50.896Z,14.50
2019-04-16T21:23:17.449Z,14.50
2019-04-16T21:25:47.234Z,14.40
2019-04-16T21:28:30.552Z,14.40
2019-04-16T21:31:04.543Z,14.40
2019-04-16T21:33:42.428Z,14.30
2019-04-16T21:36:17.787Z,14.30
2019-04-16T21:39:06.568Z,14.30
2019-04-16T21:41:36.400Z,14.30
2019-04-16T21:44:12.141Z,14.40
2019-04-16T21:46:37.293Z,14.30
2019-04-16T21:49:08.715Z,14.30
2019-04-16T21:51:40.457Z,14.30
2019-04-16T21:54:10.313Z,14.20
2019-04-16T21:56:40.361Z,14.20
2019-04-16T21:59:09.943Z,14.20
2019-04-16T22:01:43.911Z,14.10
2019-04-16T22:04:15.986Z,14.10
2019-04-16T22:06:45.790Z,14.10
2019-04-16T22:09:15.535Z,14.00
2019-04-16T22:11:45.111Z,14.00
2019-04-16T22:14:14.653Z,13.90
2019-04-16T22:16:44.533Z,13.90
2019-04-16T22:19:14.937Z,13.80
2019-04-16T22:21:45.510Z,13.90
2019-04-16T22:24:15.059Z,13.90
2019-04-16T22:26:44.904Z,13.90
2019-04-16T22:29:15.662Z,13.80
2019-04-16T22:31:45.742Z,13.80
2019-04-16T22:34:15.285Z,13.70
2019-04-16T22:36:45.205Z,13.70
2019-04-16T22:39:32.301Z,13.70
2019-04-16T22:42:26.383Z,13.70
2019-04-16T22:45:25.600Z,13.70
2019-04-16T22:47:56.324Z,13.60
2019-04-16T22:50:25.829Z,13.60
2019-04-16T22:52:55.506Z,13.60
2019-04-16T22:55:25.786Z,13.60
2019-04-16T22:57:56.453Z,13.50
2019-04-16T23:00:45.539Z,13.50
2019-04-16T23:03:16.569Z,13.50
2019-04-16T23:05:46.335Z,13.50
2019-04-16T23:08:15.919Z,13.40
2019-04-16T23:10:45.524Z,13.40
2019-04-16T23:13:15.368Z,13.40
2019-04-16T23:15:45.185Z,13.40
2019-04-16T23:18:17.378Z,13.40
2019-04-16T23:20:45.982Z,13.40
2019-04-16T23:23:18.472Z,13.30
2019-04-16T23:25:47.303Z,13.40
2019-04-16T23:28:16.841Z,13.30
2019-04-16T23:30:47.936Z,13.30
2019-04-16T23:33:17.867Z,13.30
2019-04-16T23:35:47.746Z,13.30
2019-04-16T23:38:17.562Z,13.30
2019-04-16T23:40:47.387Z,13.30
2019-04-16T23:43:38.678Z,13.20
2019-04-16T23:46:25.481Z,13.20
2019-04-16T23:49:20.053Z,13.30
2019-04-16T23:52:01.566Z,13.20
2019-04-16T23:54:46.339Z,13.10
2019-04-16T23:57:24.935Z,13.10
